Time,TemperatureF,DewpointF,PressureIn,WindDirection,WindDirectionDegrees,WindSpeedMPH,WindSpeedGustMPH,Humidity,HourlyPrecipIn,Conditions,Clouds,dailyrainin,SoftwareType,DateUTC
2013-01-11 00:00:00,50.1,49.0,30.24,ENE,59,0.0,0.0,96,0.00,,,0.00,Wunderground v.1.13,2013-01-11 05:00:00,
2013-01-11 00:03:00,50.5,49.4,30.24,ENE,59,0.0,0.0,96,0.00,,,0.00,Wunderground v.1.13,2013-01-11 05:03:00,
2013-01-11 00:05:00,50.7,49.6,30.24,ENE,59,0.0,0.0,96,0.00,,,0.00,Wunderground v.1.13,2013-01-11 05:05:00,
2013-01-11 00:10:00,51.3,50.2,30.24,ENE,62,1.0,1.0,96,0.00,,,0.00,Wunderground v.1.13,2013-01-11 05:10:00,
2013-01-11 00:15:00,52.1,51.0,30.23,East,99,2.0,9.0,96,0.00,,,0.00,Wunderground v.1.13,2013-01-11 05:15:00,
2013-01-11 00:21:00,53.0,51.9,30.23,East,96,2.0,4.0,96,0.00,,,0.00,Wunderground v.1.13,2013-01-11 05:21:00,
2013-01-11 00:26:00,54.1,53.0,30.23,East,101,2.0,3.0,96,0.00,,,0.00,Wunderground v.1.13,2013-01-11 05:26:00,
2013-01-11 00:31:00,55.3,53.3,30.23,East,92,2.0,4.0,93,0.00,,,0.00,Wunderground v.1.13,2013-01-11 05:31:00,
2013-01-11 00:36:00,56.2,53.6,30.22,East,93,1.0,3.0,91,0.00,,,0.00,Wunderground v.1.13,2013-01-11 05:36:00,
2013-01-11 00:42:00,57.1,53.6,30.22,East,92,1.0,1.0,88,0.00,,,0.00,Wunderground v.1.13,2013-01-11 05:42:00,
2013-01-11 00:47:00,57.9,53.1,30.22,East,89,1.0,3.0,84,0.00,,,0.00,Wunderground v.1.13,2013-01-11 05:47:00,
2013-01-11 00:52:00,58.3,52.5,30.21,East,89,2.0,2.0,81,0.00,,,0.00,Wunderground v.1.13,2013-01-11 05:52:00,
2013-01-11 00:57:00,58.3,52.2,30.21,East,88,1.0,3.0,80,0.00,,,0.00,Wunderground v.1.13,2013-01-11 05:57:00,
2013-01-11 01:02:00,58.4,51.9,30.21,East,84,0.0,1.0,79,0.00,,,0.00,Wunderground v.1.13,2013-01-11 06:02:00,
2013-01-11 01:07:00,58.4,51.9,30.20,ENE,68,1.0,1.0,79,0.00,,,0.00,Wunderground v.1.13,2013-01-11 06:07:00,
2013-01-11 01:13:00,58.5,51.7,30.20,ENE,76,2.0,6.0,78,0.00,,,0.00,Wunderground v.1.13,2013-01-11 06:13:00,
2013-01-11 01:18:00,58.8,52.0,30.20,East,80,2.0,3.0,78,0.00,,,0.00,Wunderground v.1.13,2013-01-11 06:18:00,
2013-01-11 01:23:00,59.0,52.1,30.21,East,81,2.0,4.0,78,0.00,,,0.00,Wunderground v.1.13,2013-01-11 06:23:00,
2013-01-11 01:28:00,59.0,51.8,30.21,East,80,2.0,3.0,77,0.00,,,0.00,Wunderground v.1.13,2013-01-11 06:28:00,
2013-01-11 01:33:00,59.0,51.8,30.21,ENE,76,1.0,3.0,77,0.00,,,0.00,Wunderground v.1.13,2013-01-11 06:33:00,
2013-01-11 01:39:00,59.0,51.8,30.21,ENE,76,1.0,1.0,77,0.00,,,0.00,Wunderground v.1.13,2013-01-11 06:39:00,
2013-01-11 01:44:00,59.0,51.8,30.22,ENE,76,1.0,4.0,77,0.00,,,0.00,Wunderground v.1.13,2013-01-11 06:44:00,
2013-01-11 01:50:00,59.0,51.8,30.22,East,88,2.0,3.0,77,0.00,,,0.00,Wunderground v.1.13,2013-01-11 06:50:00,
2013-01-11 01:55:00,59.0,51.8,30.21,East,88,2.0,2.0,77,0.00,,,0.00,Wunderground v.1.13,2013-01-11 06:55:00,
2013-01-11 02:00:00,58.8,51.6,30.22,East,88,1.0,1.0,77,0.00,,,0.00,Wunderground v.1.13,2013-01-11 07:00:00,
2013-01-11 02:05:00,58.5,51.3,30.22,East,88,1.0,1.0,77,0.00,,,0.00,Wunderground v.1.13,2013-01-11 07:05:00,
2013-01-11 02:10:00,58.3,51.1,30.23,East,88,1.0,1.0,77,0.00,,,0.00,Wunderground v.1.13,2013-01-11 07:10:00,
2013-01-11 02:16:00,58.1,51.3,30.22,East,88,1.0,4.0,78,0.00,,,0.00,Wunderground v.1.13,2013-01-11 07:16:00,
2013-01-11 02:21:00,57.9,51.1,30.21,East,88,2.0,5.0,78,0.00,,,0.00,Wunderground v.1.13,2013-01-11 07:21:00,
2013-01-11 02:26:00,57.7,50.9,30.21,East,88,3.0,7.0,78,0.00,,,0.00,Wunderground v.1.13,2013-01-11 07:26:00,
2013-01-11 02:31:00,57.6,51.1,30.20,East,82,5.0,9.0,79,0.00,,,0.00,Wunderground v.1.13,2013-01-11 07:31:00,
2013-01-11 02:37:00,57.4,50.9,30.21,East,83,4.0,5.0,79,0.00,,,0.00,Wunderground v.1.13,2013-01-11 07:37:00,
2013-01-11 02:42:00,57.3,50.8,30.20,East,83,1.0,2.0,79,0.00,,,0.00,Wunderground v.1.13,2013-01-11 07:42:00,
2013-01-11 02:47:00,57.2,51.1,30.20,East,84,1.0,4.0,80,0.00,,,0.00,Wunderground v.1.13,2013-01-11 07:47:00,
2013-01-11 02:52:00,57.1,51.0,30.20,East,84,2.0,3.0,80,0.00,,,0.00,Wunderground v.1.13,2013-01-11 07:52:00,
2013-01-11 02:57:00,57.0,50.9,30.20,East,85,2.0,3.0,80,0.00,,,0.00,Wunderground v.1.13,2013-01-11 07:57:00,
2013-01-11 03:03:00,56.9,50.8,30.19,East,88,2.0,6.0,80,0.00,,,0.00,Wunderground v.1.13,2013-01-11 08:03:00,
2013-01-11 03:09:00,57.0,50.9,30.19,East,86,4.0,6.0,80,0.00,,,0.00,Wunderground v.1.13,2013-01-11 08:09:00,
2013-01-11 03:14:00,57.1,51.0,30.19,East,90,4.0,4.0,80,0.00,,,0.00,Wunderground v.1.13,2013-01-11 08:14:00,
2013-01-11 03:19:00,57.1,51.0,30.19,East,89,4.0,4.0,80,0.00,,,0.00,Wunderground v.1.13,2013-01-11 08:19:00,
2013-01-11 03:25:00,57.0,50.9,30.18,East,89,2.0,2.0,80,0.00,,,0.00,Wunderground v.1.13,2013-01-11 08:25:00,
2013-01-11 03:30:00,56.9,50.8,30.18,East,89,1.0,5.0,80,0.00,,,0.00,Wunderground v.1.13,2013-01-11 08:30:00,
2013-01-11 03:35:00,56.9,50.8,30.17,East,81,3.0,3.0,80,0.00,,,0.00,Wunderground v.1.13,2013-01-11 08:35:00,
2013-01-11 03:40:00,56.9,50.8,30.17,East,84,5.0,5.0,80,0.00,,,0.00,Wunderground v.1.13,2013-01-11 08:40:00,
2013-01-11 03:45:00,56.9,50.8,30.16,East,89,6.0,6.0,80,0.00,,,0.00,Wunderground v.1.13,2013-01-11 08:45:00,
2013-01-11 03:50:00,56.9,50.8,30.16,East,91,6.0,6.0,80,0.00,,,0.00,Wunderground v.1.13,2013-01-11 08:50:00,
2013-01-11 03:56:00,56.9,50.8,30.17,East,88,6.0,7.0,80,0.00,,,0.00,Wunderground v.1.13,2013-01-11 08:56:00,
2013-01-11 04:02:00,56.9,50.8,30.16,East,91,4.0,5.0,80,0.00,,,0.00,Wunderground v.1.13,2013-01-11 09:02:00,
2013-01-11 04:07:00,56.8,50.7,30.16,East,91,2.0,3.0,80,0.00,,,0.00,Wunderground v.1.13,2013-01-11 09:07:00,
2013-01-11 04:12:00,56.7,50.6,30.16,East,91,0.0,1.0,80,0.00,,,0.00,Wunderground v.1.13,2013-01-11 09:12:00,
2013-01-11 04:17:00,56.6,50.5,30.16,East,91,1.0,2.0,80,0.00,,,0.00,Wunderground v.1.13,2013-01-11 09:17:00,
2013-01-11 04:22:00,56.5,50.4,30.16,East,91,1.0,4.0,80,0.00,,,0.00,Wunderground v.1.13,2013-01-11 09:22:00,
2013-01-11 04:28:00,56.4,50.6,30.16,East,91,1.0,2.0,81,0.00,,,0.00,Wunderground v.1.13,2013-01-11 09:28:00,
2013-01-11 04:33:00,56.4,50.6,30.16,East,91,0.0,1.0,81,0.00,,,0.00,Wunderground v.1.13,2013-01-11 09:33:00,
2013-01-11 04:38:00,56.3,50.5,30.15,East,91,0.0,1.0,81,0.00,,,0.00,Wunderground v.1.13,2013-01-11 09:38:00,
2013-01-11 04:43:00,56.3,50.5,30.15,East,91,0.0,0.0,81,0.00,,,0.00,Wunderground v.1.13,2013-01-11 09:43:00,
2013-01-11 04:48:00,56.2,50.4,30.16,East,91,0.0,0.0,81,0.00,,,0.00,Wunderground v.1.13,2013-01-11 09:48:00,
2013-01-11 04:54:00,56.2,50.4,30.16,East,91,0.0,0.0,81,0.00,,,0.00,Wunderground v.1.13,2013-01-11 09:54:00,
2013-01-11 04:59:00,56.1,50.3,30.16,East,91,0.0,0.0,81,0.00,,,0.00,Wunderground v.1.13,2013-01-11 09:59:00,
2013-01-11 05:04:00,56.0,50.6,30.16,East,91,0.0,0.0,82,0.00,,,0.00,Wunderground v.1.13,2013-01-11 10:04:00,
2013-01-11 05:09:00,55.8,50.4,30.16,East,91,0.0,0.0,82,0.00,,,0.00,Wunderground v.1.13,2013-01-11 10:09:00,
2013-01-11 05:15:00,55.6,50.2,30.16,East,91,0.0,0.0,82,0.00,,,0.00,Wunderground v.1.13,2013-01-11 10:15:00,
2013-01-11 05:21:00,55.4,50.0,30.15,East,91,0.0,0.0,82,0.00,,,0.00,Wunderground v.1.13,2013-01-11 10:21:00,
2013-01-11 05:26:00,55.3,50.2,30.15,East,91,0.0,0.0,83,0.00,,,0.00,Wunderground v.1.13,2013-01-11 10:26:00,
2013-01-11 05:31:00,55.0,50.3,30.14,East,91,0.0,0.0,84,0.00,,,0.00,Wunderground v.1.13,2013-01-11 10:31:00,
2013-01-11 05:36:00,54.8,50.1,30.14,East,91,0.0,0.0,84,0.00,,,0.00,Wunderground v.1.13,2013-01-11 10:36:00,
2013-01-11 05:41:00,54.6,49.9,30.15,East,91,0.0,0.0,84,0.00,,,0.00,Wunderground v.1.13,2013-01-11 10:41:00,
2013-01-11 05:47:00,54.3,49.9,30.15,East,91,0.0,3.0,85,0.00,,,0.00,Wunderground v.1.13,2013-01-11 10:47:00,
2013-01-11 05:52:00,53.8,49.4,30.15,ENE,59,1.0,3.0,85,0.00,,,0.00,Wunderground v.1.13,2013-01-11 10:52:00,
2013-01-11 05:57:00,53.6,49.5,30.15,ENE,59,1.0,1.0,86,0.00,,,0.00,Wunderground v.1.13,2013-01-11 10:57:00,
2013-01-11 06:03:00,53.5,49.7,30.15,ENE,59,0.0,1.0,87,0.00,,,0.00,Wunderground v.1.13,2013-01-11 11:03:00,
2013-01-11 06:09:00,53.4,49.6,30.15,ENE,59,0.0,0.0,87,0.00,,,0.00,Wunderground v.1.13,2013-01-11 11:09:00,
2013-01-11 06:14:00,53.3,49.5,30.14,ENE,59,0.0,0.0,87,0.00,,,0.00,Wunderground v.1.13,2013-01-11 11:14:00,
2013-01-11 06:19:00,53.2,49.4,30.15,ENE,59,0.0,0.0,87,0.00,,,0.00,Wunderground v.1.13,2013-01-11 11:19:00,
2013-01-11 06:25:00,53.2,49.7,30.16,ENE,59,0.0,0.0,88,0.00,,,0.00,Wunderground v.1.13,2013-01-11 11:25:00,
2013-01-11 06:30:00,53.1,49.6,30.16,ENE,59,0.0,0.0,88,0.00,,,0.00,Wunderground v.1.13,2013-01-11 11:30:00,
2013-01-11 06:35:00,53.1,49.6,30.16,ENE,59,0.0,0.0,88,0.00,,,0.00,Wunderground v.1.13,2013-01-11 11:35:00,
2013-01-11 06:40:00,53.0,49.8,30.16,ENE,59,0.0,0.0,89,0.00,,,0.00,Wunderground v.1.13,2013-01-11 11:40:00,
2013-01-11 06:45:00,53.0,49.8,30.16,ENE,59,0.0,0.0,89,0.00,,,0.00,Wunderground v.1.13,2013-01-11 11:45:00,
2013-01-11 06:51:00,52.9,49.7,30.17,ENE,59,0.0,0.0,89,0.00,,,0.00,Wunderground v.1.13,2013-01-11 11:51:00,
2013-01-11 06:56:00,52.9,50.0,30.17,ENE,59,0.0,0.0,90,0.00,,,0.00,Wunderground v.1.13,2013-01-11 11:56:00,
2013-01-11 07:01:00,52.9,50.0,30.17,ENE,59,0.0,0.0,90,0.00,,,0.00,Wunderground v.1.13,2013-01-11 12:01:00,
2013-01-11 07:06:00,52.9,50.0,30.17,ENE,59,0.0,0.0,90,0.00,,,0.01,Wunderground v.1.13,2013-01-11 12:06:00,
2013-01-11 07:11:00,52.8,50.2,30.18,ENE,59,0.0,0.0,91,0.00,,,0.01,Wunderground v.1.13,2013-01-11 12:11:00,
2013-01-11 07:17:00,52.8,50.2,30.18,ENE,59,0.0,0.0,91,0.00,,,0.01,Wunderground v.1.13,2013-01-11 12:17:00,
2013-01-11 07:22:00,52.8,50.2,30.17,ENE,59,0.0,0.0,91,0.00,,,0.01,Wunderground v.1.13,2013-01-11 12:22:00,
2013-01-11 07:27:00,52.8,50.5,30.17,ENE,59,0.0,0.0,92,0.00,,,0.01,Wunderground v.1.13,2013-01-11 12:27:00,
2013-01-11 07:33:00,52.7,50.4,30.17,ENE,59,0.0,0.0,92,0.00,,,0.01,Wunderground v.1.13,2013-01-11 12:33:00,
2013-01-11 07:38:00,52.7,50.4,30.17,ENE,59,0.0,0.0,92,0.00,,,0.02,Wunderground v.1.13,2013-01-11 12:38:00,
2013-01-11 07:44:00,52.7,50.4,30.17,ENE,59,0.0,0.0,92,0.00,,,0.02,Wunderground v.1.13,2013-01-11 12:44:00,
2013-01-11 07:49:00,52.6,50.3,30.17,ENE,59,0.0,0.0,92,0.00,,,0.02,Wunderground v.1.13,2013-01-11 12:49:00,
2013-01-11 07:54:00,52.6,50.6,30.17,ENE,59,0.0,0.0,93,0.00,,,0.02,Wunderground v.1.13,2013-01-11 12:54:00,
2013-01-11 07:59:00,52.5,50.5,30.17,ENE,59,0.0,0.0,93,0.00,,,0.02,Wunderground v.1.13,2013-01-11 12:59:00,
2013-01-11 08:04:00,52.4,50.4,30.16,ENE,59,0.0,0.0,93,0.00,,,0.02,Wunderground v.1.13,2013-01-11 13:04:00,
2013-01-11 08:10:00,52.5,50.5,30.17,ENE,61,1.0,2.0,93,0.00,,,0.02,Wunderground v.1.13,2013-01-11 13:10:00,
2013-01-11 08:15:00,52.6,50.6,30.16,ENE,69,2.0,2.0,93,0.00,,,0.02,Wunderground v.1.13,2013-01-11 13:15:00,
2013-01-11 08:20:00,52.8,51.1,30.17,ENE,69,1.0,1.0,94,0.00,,,0.02,Wunderground v.1.13,2013-01-11 13:20:00,
2013-01-11 08:25:00,52.9,51.2,30.17,ENE,69,0.0,0.0,94,0.00,,,0.02,Wunderground v.1.13,2013-01-11 13:25:00,
2013-01-11 08:30:00,53.0,51.3,30.17,ENE,68,0.0,0.0,94,0.00,,,0.02,Wunderground v.1.13,2013-01-11 13:30:00,
2013-01-11 08:36:00,53.0,51.3,30.17,ENE,68,0.0,0.0,94,0.00,,,0.02,Wunderground v.1.13,2013-01-11 13:36:00,
2013-01-11 08:41:00,53.1,51.4,30.16,ENE,68,0.0,0.0,94,0.00,,,0.02,Wunderground v.1.13,2013-01-11 13:41:00,
2013-01-11 08:46:00,53.2,51.5,30.16,ENE,68,0.0,1.0,94,0.00,,,0.02,Wunderground v.1.13,2013-01-11 13:46:00,
2013-01-11 08:51:00,53.4,52.0,30.16,ENE,68,0.0,0.0,95,0.00,,,0.02,Wunderground v.1.13,2013-01-11 13:51:00,
2013-01-11 08:57:00,53.6,52.2,30.16,ENE,68,0.0,0.0,95,0.00,,,0.02,Wunderground v.1.13,2013-01-11 13:57:00,
2013-01-11 09:02:00,53.8,52.4,30.16,East,84,0.0,0.0,95,0.00,,,0.02,Wunderground v.1.13,2013-01-11 14:02:00,
2013-01-11 09:07:00,54.2,53.1,30.16,East,84,0.0,0.0,96,0.00,,,0.02,Wunderground v.1.13,2013-01-11 14:07:00,
2013-01-11 09:12:00,54.5,53.4,30.16,East,84,0.0,0.0,96,0.00,,,0.02,Wunderground v.1.13,2013-01-11 14:12:00,
2013-01-11 09:17:00,54.7,53.6,30.16,East,96,0.0,0.0,96,0.00,,,0.02,Wunderground v.1.13,2013-01-11 14:17:00,
2013-01-11 09:23:00,54.9,53.8,30.16,ENE,76,0.0,0.0,96,0.00,,,0.02,Wunderground v.1.13,2013-01-11 14:23:00,
2013-01-11 09:28:00,55.0,53.9,30.16,ENE,78,0.0,0.0,96,0.00,,,0.02,Wunderground v.1.13,2013-01-11 14:28:00,
2013-01-11 09:33:00,55.1,54.0,30.16,ENE,78,0.0,0.0,96,0.00,,,0.02,Wunderground v.1.13,2013-01-11 14:33:00,
2013-01-11 09:38:00,55.4,54.3,30.16,ENE,78,0.0,0.0,96,0.00,,,0.02,Wunderground v.1.13,2013-01-11 14:38:00,
2013-01-11 09:43:00,55.7,54.6,30.16,ENE,78,0.0,0.0,96,0.00,,,0.02,Wunderground v.1.13,2013-01-11 14:43:00,
2013-01-11 09:48:00,56.1,55.3,30.16,ENE,78,0.0,0.0,97,0.00,,,0.02,Wunderground v.1.13,2013-01-11 14:48:00,
2013-01-11 09:54:00,56.4,55.3,30.16,ENE,78,0.0,0.0,96,0.00,,,0.02,Wunderground v.1.13,2013-01-11 14:54:00,
2013-01-11 09:59:00,56.5,55.4,30.17,ENE,78,0.0,0.0,96,0.00,,,0.02,Wunderground v.1.13,2013-01-11 14:59:00,
2013-01-11 10:04:00,56.4,55.3,30.16,ENE,78,0.0,0.0,96,0.00,,,0.02,Wunderground v.1.13,2013-01-11 15:04:00,
2013-01-11 10:09:00,56.5,55.4,30.16,ENE,78,0.0,0.0,96,0.00,,,0.02,Wunderground v.1.13,2013-01-11 15:09:00,
2013-01-11 10:15:00,56.7,55.9,30.16,ENE,78,0.0,0.0,97,0.00,,,0.02,Wunderground v.1.13,2013-01-11 15:15:00,
2013-01-11 10:20:00,56.7,55.6,30.16,ENE,78,0.0,0.0,96,0.00,,,0.02,Wunderground v.1.13,2013-01-11 15:20:00,
2013-01-11 10:25:00,56.7,55.6,30.16,ENE,74,0.0,0.0,96,0.00,,,0.02,Wunderground v.1.13,2013-01-11 15:25:00,
2013-01-11 10:30:00,56.6,55.5,30.17,ENE,74,0.0,0.0,96,0.00,,,0.02,Wunderground v.1.13,2013-01-11 15:30:00,
2013-01-11 10:36:00,56.5,55.4,30.17,ENE,74,0.0,0.0,96,0.00,,,0.02,Wunderground v.1.13,2013-01-11 15:36:00,
2013-01-11 10:41:00,56.5,55.4,30.18,ENE,74,0.0,0.0,96,0.00,,,0.02,Wunderground v.1.13,2013-01-11 15:41:00,
2013-01-11 10:46:00,56.6,55.5,30.18,ENE,74,0.0,0.0,96,0.00,,,0.02,Wunderground v.1.13,2013-01-11 15:46:00,
2013-01-11 10:51:00,56.6,55.5,30.18,ENE,74,0.0,0.0,96,0.00,,,0.02,Wunderground v.1.13,2013-01-11 15:51:00,
2013-01-11 10:56:00,56.8,55.7,30.17,ENE,74,0.0,0.0,96,0.00,,,0.02,Wunderground v.1.13,2013-01-11 15:56:00,
2013-01-11 11:01:00,57.1,56.0,30.17,ENE,74,0.0,0.0,96,0.00,,,0.02,Wunderground v.1.13,2013-01-11 16:01:00,
2013-01-11 11:06:00,57.2,56.1,30.16,ENE,74,0.0,0.0,96,0.00,,,0.02,Wunderground v.1.13,2013-01-11 16:06:00,
2013-01-11 11:12:00,57.4,56.3,30.16,ENE,74,0.0,0.0,96,0.00,,,0.02,Wunderground v.1.13,2013-01-11 16:12:00,
2013-01-11 11:17:00,57.7,56.6,30.16,ENE,74,0.0,0.0,96,0.00,,,0.02,Wunderground v.1.13,2013-01-11 16:17:00,
2013-01-11 11:22:00,57.9,56.8,30.16,ENE,74,0.0,0.0,96,0.00,,,0.02,Wunderground v.1.13,2013-01-11 16:22:00,
2013-01-11 11:27:00,58.1,57.0,30.16,ENE,74,0.0,0.0,96,0.00,,,0.02,Wunderground v.1.13,2013-01-11 16:27:00,
2013-01-11 11:32:00,58.2,57.1,30.16,ENE,74,0.0,0.0,96,0.00,,,0.02,Wunderground v.1.13,2013-01-11 16:32:00,
2013-01-11 11:37:00,58.2,57.1,30.16,ENE,74,0.0,0.0,96,0.00,,,0.02,Wunderground v.1.13,2013-01-11 16:37:00,
2013-01-11 11:43:00,58.4,57.3,30.16,ENE,74,0.0,0.0,96,0.00,,,0.02,Wunderground v.1.13,2013-01-11 16:43:00,
2013-01-11 11:48:00,58.5,57.4,30.15,ENE,74,0.0,0.0,96,0.00,,,0.02,Wunderground v.1.13,2013-01-11 16:48:00,
2013-01-11 11:53:00,58.6,57.5,30.16,ENE,74,0.0,0.0,96,0.00,,,0.02,Wunderground v.1.13,2013-01-11 16:53:00,
2013-01-11 11:58:00,58.6,57.5,30.15,ENE,74,0.0,0.0,96,0.00,,,0.02,Wunderground v.1.13,2013-01-11 16:58:00,
2013-01-11 12:04:00,58.6,57.5,30.15,ENE,74,0.0,0.0,96,0.00,,,0.02,Wunderground v.1.13,2013-01-11 17:04:00,
2013-01-11 12:09:00,58.8,57.7,30.15,ENE,74,0.0,0.0,96,0.00,,,0.02,Wunderground v.1.13,2013-01-11 17:09:00,
2013-01-11 12:14:00,59.0,57.9,30.15,ENE,74,0.0,0.0,96,0.00,,,0.02,Wunderground v.1.13,2013-01-11 17:14:00,
2013-01-11 12:19:00,59.0,57.9,30.14,ENE,74,0.0,1.0,96,0.00,,,0.02,Wunderground v.1.13,2013-01-11 17:19:00,
2013-01-11 12:25:00,59.0,57.9,30.14,ENE,74,0.0,0.0,96,0.00,,,0.02,Wunderground v.1.13,2013-01-11 17:25:00,
2013-01-11 12:30:00,59.5,58.4,30.14,ENE,74,0.0,0.0,96,0.00,,,0.03,Wunderground v.1.13,2013-01-11 17:30:00,
2013-01-11 12:35:00,59.9,58.8,30.13,ENE,74,0.0,0.0,96,0.00,,,0.03,Wunderground v.1.13,2013-01-11 17:35:00,
2013-01-11 12:40:00,60.2,59.1,30.13,ENE,74,0.0,0.0,96,0.00,,,0.03,Wunderground v.1.13,2013-01-11 17:40:00,
2013-01-11 12:45:00,60.5,59.4,30.13,ENE,74,0.0,0.0,96,0.00,,,0.03,Wunderground v.1.13,2013-01-11 17:45:00,
2013-01-11 12:51:00,61.7,60.8,30.12,ENE,74,0.0,0.0,97,0.00,,,0.03,Wunderground v.1.13,2013-01-11 17:51:00,
2013-01-11 12:56:00,62.4,61.2,30.12,South,183,1.0,2.0,96,0.00,,,0.03,Wunderground v.1.13,2013-01-11 17:56:00,
2013-01-11 13:02:00,62.6,61.4,30.12,WSW,238,2.0,5.0,96,0.00,,,0.03,Wunderground v.1.13,2013-01-11 18:02:00,
2013-01-11 13:07:00,63.0,61.8,30.12,WSW,248,4.0,7.0,96,0.00,,,0.03,Wunderground v.1.13,2013-01-11 18:07:00,
2013-01-11 13:13:00,63.7,62.5,30.12,WSW,248,3.0,4.0,96,0.00,,,0.03,Wunderground v.1.13,2013-01-11 18:13:00,
2013-01-11 13:18:00,64.2,62.4,30.12,WSW,239,3.0,9.0,94,0.00,,,0.03,Wunderground v.1.13,2013-01-11 18:18:00,
2013-01-11 13:23:00,64.4,62.3,30.12,West,267,4.0,7.0,93,0.00,,,0.03,Wunderground v.1.13,2013-01-11 18:23:00,
2013-01-11 13:28:00,64.5,62.4,30.12,West,263,5.0,9.0,93,0.00,,,0.03,Wunderground v.1.13,2013-01-11 18:28:00,
2013-01-11 13:33:00,64.6,62.2,30.12,West,269,5.0,5.0,92,0.00,,,0.03,Wunderground v.1.13,2013-01-11 18:33:00,
2013-01-11 13:39:00,64.9,62.2,30.11,SW,234,5.0,10.0,91,0.00,,,0.03,Wunderground v.1.13,2013-01-11 18:39:00,
2013-01-11 13:44:00,65.8,63.1,30.11,WSW,249,6.0,13.0,91,0.00,,,0.03,Wunderground v.1.13,2013-01-11 18:44:00,
2013-01-11 13:49:00,66.1,62.4,30.11,WSW,250,8.0,8.0,88,0.00,,,0.03,Wunderground v.1.13,2013-01-11 18:49:00,
2013-01-11 13:54:00,66.4,62.4,30.11,West,267,8.0,9.0,87,0.00,,,0.03,Wunderground v.1.13,2013-01-11 18:54:00,
2013-01-11 13:59:00,66.5,62.5,30.11,WSW,250,6.0,6.0,87,0.00,,,0.03,Wunderground v.1.13,2013-01-11 18:59:00,
2013-01-11 14:05:00,66.7,62.4,30.11,West,273,6.0,10.0,86,0.00,,,0.03,Wunderground v.1.13,2013-01-11 19:05:00,
2013-01-11 14:10:00,66.8,62.1,30.11,WSW,253,7.0,7.0,85,0.00,,,0.03,Wunderground v.1.13,2013-01-11 19:10:00,
2013-01-11 14:15:00,66.8,62.5,30.11,WSW,237,6.0,7.0,86,0.00,,,0.03,Wunderground v.1.13,2013-01-11 19:15:00,
2013-01-11 14:21:00,66.8,62.1,30.11,West,270,6.0,9.0,85,0.00,,,0.03,Wunderground v.1.13,2013-01-11 19:21:00,
2013-01-11 14:26:00,66.6,61.9,30.10,West,260,6.0,10.0,85,0.00,,,0.03,Wunderground v.1.13,2013-01-11 19:26:00,
2013-01-11 14:31:00,66.6,61.9,30.10,West,271,5.0,6.0,85,0.00,,,0.03,Wunderground v.1.13,2013-01-11 19:31:00,
2013-01-11 14:36:00,66.5,61.8,30.10,West,259,4.0,7.0,85,0.00,,,0.03,Wunderground v.1.13,2013-01-11 19:36:00,
2013-01-11 14:42:00,66.4,61.8,30.11,WSW,241,4.0,7.0,85,0.00,,,0.03,Wunderground v.1.13,2013-01-11 19:42:00,
2013-01-11 14:47:00,66.3,61.7,30.11,West,269,5.0,11.0,85,0.00,,,0.03,Wunderground v.1.13,2013-01-11 19:47:00,
2013-01-11 14:53:00,66.4,61.4,30.11,West,263,7.0,10.0,84,0.00,,,0.03,Wunderground v.1.13,2013-01-11 19:53:00,
2013-01-11 14:58:00,66.4,61.4,30.11,West,259,7.0,11.0,84,0.00,,,0.03,Wunderground v.1.13,2013-01-11 19:58:00,
2013-01-11 15:03:00,66.4,61.4,30.11,WSW,255,8.0,14.0,84,0.00,,,0.03,Wunderground v.1.13,2013-01-11 20:03:00,
2013-01-11 15:09:00,66.5,61.5,30.10,SW,220,8.0,8.0,84,0.00,,,0.03,Wunderground v.1.13,2013-01-11 20:09:00,
2013-01-11 15:14:00,66.6,61.3,30.11,West,259,8.0,9.0,83,0.00,,,0.03,Wunderground v.1.13,2013-01-11 20:14:00,
2013-01-11 15:20:00,66.8,61.5,30.11,West,265,8.0,8.0,83,0.00,,,0.03,Wunderground v.1.13,2013-01-11 20:20:00,
2013-01-11 15:25:00,67.0,61.7,30.11,West,264,7.0,8.0,83,0.00,,,0.03,Wunderground v.1.13,2013-01-11 20:25:00,
2013-01-11 15:31:00,67.2,61.9,30.11,WSW,241,8.0,9.0,83,0.00,,,0.03,Wunderground v.1.13,2013-01-11 20:31:00,
2013-01-11 15:36:00,67.5,62.2,30.10,West,270,8.0,9.0,83,0.00,,,0.03,Wunderground v.1.13,2013-01-11 20:36:00,
2013-01-11 15:41:00,67.7,62.0,30.10,SW,227,8.0,11.0,82,0.00,,,0.03,Wunderground v.1.13,2013-01-11 20:41:00,
2013-01-11 15:46:00,67.7,61.7,30.10,SW,221,8.0,14.0,81,0.00,,,0.03,Wunderground v.1.13,2013-01-11 20:46:00,
2013-01-11 15:52:00,67.6,61.6,30.10,WSW,248,9.0,10.0,81,0.00,,,0.03,Wunderground v.1.13,2013-01-11 20:52:00,
2013-01-11 15:57:00,67.6,61.6,30.09,SW,232,8.0,10.0,81,0.00,,,0.03,Wunderground v.1.13,2013-01-11 20:57:00,
2013-01-11 16:02:00,67.8,61.8,30.09,West,271,7.0,11.0,81,0.00,,,0.03,Wunderground v.1.13,2013-01-11 21:02:00,
2013-01-11 16:07:00,68.1,61.7,30.09,West,278,8.0,10.0,80,0.00,,,0.03,Wunderground v.1.13,2013-01-11 21:07:00,
2013-01-11 16:13:00,68.2,61.4,30.09,WSW,249,10.0,19.0,79,0.00,,,0.03,Wunderground v.1.13,2013-01-11 21:13:00,
2013-01-11 16:18:00,68.2,61.4,30.09,SW,232,9.0,13.0,79,0.00,,,0.03,Wunderground v.1.13,2013-01-11 21:18:00,
2013-01-11 16:23:00,68.1,61.7,30.09,SW,234,8.0,11.0,80,0.00,,,0.03,Wunderground v.1.13,2013-01-11 21:23:00,
2013-01-11 16:28:00,68.0,61.6,30.10,WSW,252,8.0,10.0,80,0.00,,,0.03,Wunderground v.1.13,2013-01-11 21:28:00,
2013-01-11 16:33:00,68.0,61.6,30.10,West,268,7.0,14.0,80,0.00,,,0.03,Wunderground v.1.13,2013-01-11 21:33:00,
2013-01-11 16:38:00,68.1,61.7,30.10,WSW,253,6.0,9.0,80,0.00,,,0.03,Wunderground v.1.13,2013-01-11 21:38:00,
2013-01-11 16:44:00,68.2,61.4,30.10,West,259,7.0,12.0,79,0.00,,,0.03,Wunderground v.1.13,2013-01-11 21:44:00,
2013-01-11 16:50:00,68.1,61.3,30.10,WSW,257,8.0,8.0,79,0.00,,,0.03,Wunderground v.1.13,2013-01-11 21:50:00,
2013-01-11 16:55:00,67.9,61.1,30.10,West,275,8.0,11.0,79,0.00,,,0.03,Wunderground v.1.13,2013-01-11 21:55:00,
2013-01-11 17:00:00,67.7,61.0,30.10,WSW,253,8.0,11.0,79,0.00,,,0.03,Wunderground v.1.13,2013-01-11 22:00:00,
2013-01-11 17:06:00,67.5,60.8,30.11,WSW,243,8.0,8.0,79,0.00,,,0.03,Wunderground v.1.13,2013-01-11 22:06:00,
2013-01-11 17:11:00,67.4,60.7,30.11,WSW,254,7.0,11.0,79,0.00,,,0.03,Wunderground v.1.13,2013-01-11 22:11:00,
2013-01-11 17:17:00,67.3,60.6,30.10,West,260,7.0,7.0,79,0.00,,,0.03,Wunderground v.1.13,2013-01-11 22:17:00,
2013-01-11 17:22:00,67.1,60.7,30.11,WSW,247,6.0,8.0,80,0.00,,,0.03,Wunderground v.1.13,2013-01-11 22:22:00,
2013-01-11 17:27:00,67.0,60.6,30.11,West,265,7.0,11.0,80,0.00,,,0.03,Wunderground v.1.13,2013-01-11 22:27:00,
2013-01-11 17:33:00,66.8,60.4,30.11,West,265,6.0,6.0,80,0.00,,,0.03,Wunderground v.1.13,2013-01-11 22:33:00,
2013-01-11 17:38:00,66.6,60.2,30.12,West,262,4.0,6.0,80,0.00,,,0.03,Wunderground v.1.13,2013-01-11 22:38:00,
2013-01-11 17:43:00,66.2,60.2,30.12,West,263,4.0,4.0,81,0.00,,,0.03,Wunderground v.1.13,2013-01-11 22:43:00,
2013-01-11 17:48:00,65.9,60.2,30.12,West,263,3.0,4.0,82,0.00,,,0.03,Wunderground v.1.13,2013-01-11 22:48:00,
2013-01-11 17:54:00,65.6,60.0,30.12,West,262,4.0,6.0,82,0.00,,,0.03,Wunderground v.1.13,2013-01-11 22:54:00,
2013-01-11 17:59:00,65.4,60.1,30.12,West,260,4.0,5.0,83,0.00,,,0.03,Wunderground v.1.13,2013-01-11 22:59:00,
2013-01-11 18:04:00,65.3,60.0,30.12,West,260,2.0,2.0,83,0.00,,,0.03,Wunderground v.1.13,2013-01-11 23:04:00,
2013-01-11 18:09:00,65.1,60.1,30.12,West,260,1.0,1.0,84,0.00,,,0.03,Wunderground v.1.13,2013-01-11 23:09:00,
2013-01-11 18:14:00,65.0,60.0,30.12,West,260,1.0,1.0,84,0.00,,,0.03,Wunderground v.1.13,2013-01-11 23:14:00,
2013-01-11 18:20:00,64.8,59.9,30.12,West,260,1.0,1.0,84,0.00,,,0.03,Wunderground v.1.13,2013-01-11 23:20:00,
2013-01-11 18:25:00,64.7,59.8,30.12,West,260,0.0,0.0,84,0.00,,,0.03,Wunderground v.1.13,2013-01-11 23:25:00,
2013-01-11 18:31:00,64.5,59.6,30.12,West,260,0.0,0.0,84,0.00,,,0.03,Wunderground v.1.13,2013-01-11 23:31:00,
2013-01-11 18:36:00,64.2,59.3,30.13,West,260,0.0,1.0,84,0.00,,,0.03,Wunderground v.1.13,2013-01-11 23:36:00,
2013-01-11 18:41:00,63.8,58.9,30.12,West,260,0.0,0.0,84,0.00,,,0.03,Wunderground v.1.13,2013-01-11 23:41:00,
2013-01-11 18:47:00,63.4,58.8,30.12,West,260,0.0,0.0,85,0.00,,,0.03,Wunderground v.1.13,2013-01-11 23:47:00,
2013-01-11 18:52:00,63.0,58.4,30.12,West,260,0.0,0.0,85,0.00,,,0.03,Wunderground v.1.13,2013-01-11 23:52:00,
2013-01-11 18:57:00,62.6,58.0,30.12,West,260,0.0,0.0,85,0.00,,,0.03,Wunderground v.1.13,2013-01-11 23:57:00,
2013-01-11 19:02:00,62.1,57.5,30.12,West,260,0.0,0.0,85,0.00,,,0.03,Wunderground v.1.13,2013-01-12 00:02:00,
2013-01-11 19:07:00,61.7,57.1,30.12,West,260,0.0,0.0,85,0.00,,,0.03,Wunderground v.1.13,2013-01-12 00:07:00,
2013-01-11 19:12:00,61.2,56.7,30.12,West,260,0.0,0.0,85,0.00,,,0.03,Wunderground v.1.13,2013-01-12 00:12:00,
2013-01-11 19:18:00,60.7,56.2,30.12,West,260,0.0,0.0,85,0.00,,,0.03,Wunderground v.1.13,2013-01-12 00:18:00,
2013-01-11 19:24:00,60.2,55.7,30.12,West,260,0.0,0.0,85,0.00,,,0.03,Wunderground v.1.13,2013-01-12 00:24:00,
2013-01-11 19:29:00,59.7,55.5,30.12,West,260,0.0,0.0,86,0.00,,,0.03,Wunderground v.1.13,2013-01-12 00:29:00,
2013-01-11 19:34:00,59.2,55.0,30.13,West,260,0.0,0.0,86,0.00,,,0.03,Wunderground v.1.13,2013-01-12 00:34:00,
2013-01-11 19:40:00,59.0,55.1,30.13,West,260,0.0,0.0,87,0.00,,,0.03,Wunderground v.1.13,2013-01-12 00:40:00,
2013-01-11 19:45:00,58.7,54.8,30.12,West,260,0.0,0.0,87,0.00,,,0.03,Wunderground v.1.13,2013-01-12 00:45:00,
2013-01-11 19:50:00,58.3,54.8,30.13,West,260,0.0,0.0,88,0.00,,,0.03,Wunderground v.1.13,2013-01-12 00:50:00,
2013-01-11 19:55:00,58.0,54.5,30.12,West,260,0.0,0.0,88,0.00,,,0.03,Wunderground v.1.13,2013-01-12 00:55:00,
2013-01-11 20:00:00,57.8,54.6,30.13,West,260,0.0,0.0,89,0.00,,,0.03,Wunderground v.1.13,2013-01-12 01:00:00,
2013-01-11 20:05:00,57.7,54.5,30.13,West,260,0.0,0.0,89,0.00,,,0.03,Wunderground v.1.13,2013-01-12 01:05:00,
2013-01-11 20:11:00,57.6,54.7,30.13,West,260,0.0,0.0,90,0.00,,,0.03,Wunderground v.1.13,2013-01-12 01:11:00,
2013-01-11 20:16:00,57.4,54.5,30.13,West,260,0.0,0.0,90,0.00,,,0.03,Wunderground v.1.13,2013-01-12 01:16:00,
2013-01-11 20:21:00,57.2,54.3,30.13,West,260,0.0,0.0,90,0.00,,,0.03,Wunderground v.1.13,2013-01-12 01:21:00,
2013-01-11 20:26:00,57.1,54.2,30.13,West,260,0.0,0.0,90,0.00,,,0.03,Wunderground v.1.13,2013-01-12 01:26:00,
2013-01-11 20:31:00,56.9,54.0,30.14,West,260,0.0,0.0,90,0.00,,,0.03,Wunderground v.1.13,2013-01-12 01:31:00,
2013-01-11 20:36:00,56.7,54.1,30.13,West,260,0.0,0.0,91,0.00,,,0.03,Wunderground v.1.13,2013-01-12 01:36:00,
2013-01-11 20:41:00,56.5,53.9,30.13,West,260,0.0,0.0,91,0.00,,,0.03,Wunderground v.1.13,2013-01-12 01:41:00,
2013-01-11 20:47:00,56.4,53.8,30.13,West,260,0.0,0.0,91,0.00,,,0.03,Wunderground v.1.13,2013-01-12 01:47:00,
2013-01-11 20:52:00,56.2,53.6,30.12,West,260,0.0,0.0,91,0.00,,,0.03,Wunderground v.1.13,2013-01-12 01:52:00,
2013-01-11 20:57:00,55.9,53.3,30.13,West,260,0.0,0.0,91,0.00,,,0.03,Wunderground v.1.13,2013-01-12 01:57:00,
2013-01-11 21:03:00,55.8,53.2,30.13,West,260,0.0,0.0,91,0.00,,,0.03,Wunderground v.1.13,2013-01-12 02:03:00,
2013-01-11 21:09:00,55.4,52.8,30.13,West,260,0.0,0.0,91,0.00,,,0.03,Wunderground v.1.13,2013-01-12 02:09:00,
2013-01-11 21:14:00,55.2,52.6,30.13,West,260,0.0,0.0,91,0.00,,,0.03,Wunderground v.1.13,2013-01-12 02:14:00,
2013-01-11 21:20:00,55.0,52.4,30.13,West,260,0.0,0.0,91,0.00,,,0.03,Wunderground v.1.13,2013-01-12 02:20:00,
2013-01-11 21:25:00,54.7,52.1,30.13,West,260,0.0,0.0,91,0.00,,,0.03,Wunderground v.1.13,2013-01-12 02:25:00,
2013-01-11 21:30:00,54.5,51.9,30.14,West,260,0.0,0.0,91,0.00,,,0.03,Wunderground v.1.13,2013-01-12 02:30:00,
2013-01-11 21:36:00,54.1,51.5,30.14,West,260,0.0,0.0,91,0.00,,,0.03,Wunderground v.1.13,2013-01-12 02:36:00,
2013-01-11 21:41:00,53.9,51.3,30.14,West,260,0.0,0.0,91,0.00,,,0.03,Wunderground v.1.13,2013-01-12 02:41:00,
2013-01-11 21:47:00,53.8,51.5,30.14,West,260,0.0,0.0,92,0.00,,,0.03,Wunderground v.1.13,2013-01-12 02:47:00,
2013-01-11 21:52:00,53.7,51.4,30.14,West,260,0.0,0.0,92,0.00,,,0.03,Wunderground v.1.13,2013-01-12 02:52:00,
2013-01-11 21:57:00,53.7,51.4,30.14,West,260,0.0,0.0,92,0.00,,,0.03,Wunderground v.1.13,2013-01-12 02:57:00,
2013-01-11 22:02:00,53.6,51.3,30.15,West,260,0.0,0.0,92,0.00,,,0.03,Wunderground v.1.13,2013-01-12 03:02:00,
2013-01-11 22:07:00,53.6,51.3,30.15,West,260,0.0,0.0,92,0.00,,,0.03,Wunderground v.1.13,2013-01-12 03:07:00,
2013-01-11 22:13:00,53.5,51.2,30.15,West,260,0.0,0.0,92,0.00,,,0.03,Wunderground v.1.13,2013-01-12 03:13:00,
2013-01-11 22:19:00,53.5,51.5,30.15,West,260,0.0,0.0,93,0.00,,,0.03,Wunderground v.1.13,2013-01-12 03:19:00,
2013-01-11 22:24:00,53.5,51.5,30.15,West,260,0.0,0.0,93,0.00,,,0.03,Wunderground v.1.13,2013-01-12 03:24:00,
2013-01-11 22:30:00,53.5,51.5,30.15,West,260,0.0,0.0,93,0.00,,,0.03,Wunderground v.1.13,2013-01-12 03:30:00,
2013-01-11 22:35:00,53.5,51.5,30.15,West,260,0.0,0.0,93,0.00,,,0.03,Wunderground v.1.13,2013-01-12 03:35:00,
2013-01-11 22:40:00,53.6,51.6,30.15,West,260,0.0,0.0,93,0.00,,,0.03,Wunderground v.1.13,2013-01-12 03:40:00,
2013-01-11 22:46:00,53.6,51.6,30.15,West,260,0.0,0.0,93,0.00,,,0.03,Wunderground v.1.13,2013-01-12 03:46:00,
2013-01-11 22:51:00,53.7,52.0,30.15,West,260,0.0,0.0,94,0.00,,,0.03,Wunderground v.1.13,2013-01-12 03:51:00,
2013-01-11 22:56:00,53.8,52.1,30.15,West,260,0.0,0.0,94,0.00,,,0.03,Wunderground v.1.13,2013-01-12 03:56:00,
2013-01-11 23:01:00,53.9,52.2,30.15,West,260,0.0,0.0,94,0.00,,,0.03,Wunderground v.1.13,2013-01-12 04:01:00,
2013-01-11 23:07:00,54.1,52.4,30.15,West,260,0.0,0.0,94,0.00,,,0.03,Wunderground v.1.13,2013-01-12 04:07:00,
2013-01-11 23:12:00,54.4,53.0,30.15,West,260,0.0,0.0,95,0.00,,,0.03,Wunderground v.1.13,2013-01-12 04:12:00,
2013-01-11 23:17:00,55.5,54.4,30.15,West,260,0.0,0.0,96,0.00,,,0.03,Wunderground v.1.13,2013-01-12 04:17:00,
2013-01-11 23:23:00,56.8,56.0,30.14,West,260,0.0,3.0,97,0.00,,,0.03,Wunderground v.1.13,2013-01-12 04:23:00,
2013-01-11 23:28:00,57.9,57.1,30.14,West,260,0.0,0.0,97,0.00,,,0.03,Wunderground v.1.13,2013-01-12 04:28:00,
2013-01-11 23:33:00,58.5,57.7,30.14,West,260,0.0,0.0,97,0.00,,,0.03,Wunderground v.1.13,2013-01-12 04:33:00,
2013-01-11 23:38:00,58.9,58.1,30.14,West,260,0.0,0.0,97,0.00,,,0.03,Wunderground v.1.13,2013-01-12 04:38:00,
2013-01-11 23:44:00,59.0,58.2,30.14,West,260,0.0,0.0,97,0.00,,,0.03,Wunderground v.1.13,2013-01-12 04:44:00,
2013-01-11 23:49:00,59.0,58.2,30.14,West,260,0.0,0.0,97,0.00,,,0.03,Wunderground v.1.13,2013-01-12 04:49:00,
2013-01-11 23:54:00,59.0,58.2,30.14,West,260,0.0,0.0,97,0.00,,,0.03,Wunderground v.1.13,2013-01-12 04:54:00,
2013-01-11 23:59:00,59.0,58.2,30.13,West,260,0.0,0.0,97,0.00,,,0.03,Wunderground v.1.13,2013-01-12 04:59:00,